createdAt,value
2018-06-10T00:01:40.782Z,99.90
2018-06-10T00:04:09.281Z,99.90
2018-06-10T00:06:38.004Z,99.90
2018-06-10T00:09:07.485Z,99.90
2018-06-10T00:11:36.166Z,99.90
2018-06-10T00:14:04.642Z,99.90
2018-06-10T00:16:33.116Z,99.90
2018-06-10T00:19:02.122Z,99.90
2018-06-10T00:21:30.569Z,99.90
2018-06-10T00:23:59.006Z,99.90
2018-06-10T00:26:27.633Z,99.90
2018-06-10T00:29:01.313Z,99.90
2018-06-10T00:33:57.960Z,99.90
2018-06-10T00:36:26.398Z,99.90
2018-06-10T00:38:54.866Z,99.90
2018-06-10T00:41:23.310Z,99.90
2018-06-10T00:43:51.758Z,99.90
2018-06-10T00:46:37.165Z,99.90
2018-06-10T00:49:05.698Z,99.90
2018-06-10T00:51:34.296Z,99.90
2018-06-10T00:54:02.718Z,99.90
2018-06-10T00:56:42.414Z,99.90
2018-06-10T00:59:10.863Z,99.90
2018-06-10T01:01:39.341Z,99.90
2018-06-10T01:04:07.818Z,99.90
2018-06-10T01:06:36.261Z,99.90
2018-06-10T01:09:07.306Z,99.90
2018-06-10T01:11:36.167Z,99.90
2018-06-10T01:14:04.981Z,99.90
2018-06-10T01:16:33.881Z,99.90
2018-06-10T01:19:02.775Z,99.90
2018-06-10T01:21:31.250Z,99.90
2018-06-10T01:26:33.356Z,99.90
2018-06-10T01:29:01.812Z,99.90
2018-06-10T01:31:30.337Z,99.90
2018-06-10T01:33:58.815Z,99.90
2018-06-10T01:36:27.283Z,99.90
2018-06-10T01:38:55.798Z,99.90
2018-06-10T01:41:24.189Z,99.90
2018-06-10T01:43:52.717Z,99.90
2018-06-10T01:46:21.200Z,99.90
2018-06-10T01:48:49.642Z,99.90
2018-06-10T01:51:18.020Z,99.90
2018-06-10T01:53:46.480Z,99.90
2018-06-10T01:56:14.915Z,99.90
2018-06-10T01:58:43.328Z,99.90
2018-06-10T02:01:11.767Z,99.90
2018-06-10T02:03:40.189Z,99.90
2018-06-10T02:06:08.693Z,99.90
2018-06-10T02:08:37.180Z,99.90
2018-06-10T02:11:05.668Z,99.90
2018-06-10T02:13:34.164Z,99.90
2018-06-10T02:16:02.564Z,99.90
2018-06-10T02:18:31.004Z,99.90
2018-06-10T02:20:59.434Z,99.90
2018-06-10T02:23:27.856Z,99.90
2018-06-10T02:25:56.307Z,99.90
2018-06-10T02:28:24.728Z,99.90
2018-06-10T02:30:53.217Z,99.90
2018-06-10T02:33:21.857Z,99.90
2018-06-10T02:35:50.296Z,99.90
2018-06-10T02:38:18.764Z,99.90
2018-06-10T02:40:47.229Z,99.90
2018-06-10T02:43:15.712Z,99.90
2018-06-10T02:45:44.165Z,99.90
2018-06-10T02:48:12.684Z,99.90
2018-06-10T02:50:41.206Z,99.90
2018-06-10T02:53:09.707Z,99.90
2018-06-10T02:55:38.250Z,99.90
2018-06-10T02:58:06.742Z,99.90
2018-06-10T03:00:35.240Z,99.90
2018-06-10T03:03:03.633Z,99.90
2018-06-10T03:05:32.099Z,99.90
2018-06-10T03:08:00.517Z,99.90
2018-06-10T03:10:29.050Z,99.90
2018-06-10T03:12:57.515Z,99.90
2018-06-10T03:15:25.947Z,99.90
2018-06-10T03:17:54.352Z,99.90
2018-06-10T03:20:22.865Z,99.90
2018-06-10T03:22:51.344Z,99.90
2018-06-10T03:25:19.790Z,99.90
2018-06-10T03:27:48.289Z,99.90
2018-06-10T03:30:16.781Z,99.90
2018-06-10T03:32:45.249Z,99.90
2018-06-10T03:35:13.779Z,99.90
2018-06-10T03:37:42.241Z,99.90
2018-06-10T03:40:10.727Z,99.90
2018-06-10T03:42:39.256Z,99.90
2018-06-10T03:45:07.664Z,99.90
2018-06-10T03:47:36.067Z,99.90
2018-06-10T03:50:04.573Z,99.90
2018-06-10T03:52:33.064Z,99.90
2018-06-10T03:55:01.497Z,99.90
2018-06-10T03:57:29.937Z,99.90
2018-06-10T03:59:58.524Z,99.90
2018-06-10T04:02:27.038Z,99.90
2018-06-10T04:04:55.534Z,99.90
2018-06-10T04:07:23.990Z,99.90
2018-06-10T04:09:52.527Z,99.90
2018-06-10T04:12:20.977Z,99.90
2018-06-10T04:14:49.355Z,99.90
2018-06-10T04:17:18.671Z,99.90
2018-06-10T04:19:47.098Z,99.90
2018-06-10T04:22:15.513Z,99.90
2018-06-10T04:24:43.966Z,99.90
2018-06-10T04:27:12.377Z,99.90
2018-06-10T04:29:40.798Z,99.90
2018-06-10T04:32:09.228Z,99.90
2018-06-10T04:34:37.669Z,99.90
2018-06-10T04:37:06.091Z,99.90
2018-06-10T04:39:34.649Z,99.90
2018-06-10T04:42:03.189Z,99.90
2018-06-10T04:44:32.570Z,99.90
2018-06-10T04:47:00.975Z,99.90
2018-06-10T04:49:29.458Z,99.90
2018-06-10T04:56:54.188Z,99.90
2018-06-10T04:59:22.741Z,99.90
2018-06-10T05:01:51.244Z,99.90
2018-06-10T05:04:19.712Z,99.90
2018-06-10T05:06:48.139Z,99.90
2018-06-10T05:09:16.589Z,99.90
2018-06-10T05:11:45.035Z,99.90
2018-06-10T05:14:19.920Z,99.90
2018-06-10T05:16:48.383Z,99.90
2018-06-10T05:19:16.860Z,99.90
2018-06-10T05:21:45.308Z,99.90
2018-06-10T05:24:13.775Z,99.90
2018-06-10T05:26:42.229Z,99.90
2018-06-10T05:29:10.863Z,99.90
2018-06-10T05:31:39.381Z,99.90
2018-06-10T05:34:08.197Z,99.90
2018-06-10T05:36:36.714Z,99.90
2018-06-10T05:39:08.155Z,99.90
2018-06-10T05:41:36.658Z,99.90
2018-06-10T05:44:05.278Z,99.90
2018-06-10T05:46:33.756Z,99.90
2018-06-10T05:49:02.185Z,99.90
2018-06-10T05:51:30.600Z,99.90
2018-06-10T05:53:59.027Z,99.90
2018-06-10T05:56:27.475Z,99.90
2018-06-10T05:58:55.942Z,99.90
2018-06-10T06:01:24.512Z,99.90
2018-06-10T06:06:21.044Z,99.90
2018-06-10T06:08:49.557Z,99.90
2018-06-10T06:11:18.042Z,99.70
2018-06-10T06:13:46.497Z,99.40
2018-06-10T06:16:15.046Z,99.00
2018-06-10T06:18:43.627Z,97.90
2018-06-10T06:21:12.138Z,98.00
2018-06-10T06:23:40.658Z,97.80
2018-06-10T06:26:09.182Z,96.90
2018-06-10T06:28:37.583Z,97.80
2018-06-10T06:31:06.036Z,97.00
2018-06-10T06:33:34.475Z,96.60
2018-06-10T06:36:02.915Z,97.10
2018-06-10T06:38:31.378Z,97.40
2018-06-10T06:40:59.838Z,96.60
2018-06-10T06:43:28.275Z,95.60
2018-06-10T06:48:24.967Z,95.10
2018-06-10T06:50:53.412Z,94.20
2018-06-10T06:53:21.935Z,94.10
2018-06-10T06:55:50.405Z,94.40
2018-06-10T06:58:18.831Z,93.90
2018-06-10T07:00:47.305Z,93.90
2018-06-10T07:03:15.833Z,94.00
2018-06-10T07:05:44.264Z,93.60
2018-06-10T07:08:12.731Z,93.10
2018-06-10T07:10:41.189Z,93.00
2018-06-10T07:13:09.666Z,93.30
2018-06-10T07:15:38.159Z,93.40
2018-06-10T07:18:06.599Z,92.50
2018-06-10T07:20:35.109Z,92.70
2018-06-10T07:23:03.691Z,91.90
2018-06-10T07:25:32.247Z,91.70
2018-06-10T07:30:29.119Z,91.00
2018-06-10T07:32:57.727Z,91.70
2018-06-10T07:35:26.274Z,91.40
2018-06-10T07:40:22.899Z,91.80
2018-06-10T07:42:51.403Z,91.50
2018-06-10T07:45:19.894Z,91.40
2018-06-10T07:47:48.497Z,91.40
2018-06-10T07:50:17.040Z,90.50
2018-06-10T07:52:45.573Z,90.40
2018-06-10T07:55:14.054Z,90.30
2018-06-10T07:57:42.545Z,88.20
2018-06-10T08:00:11.063Z,90.00
2018-06-10T08:02:39.587Z,90.70
2018-06-10T08:05:08.271Z,91.00
2018-06-10T08:07:36.800Z,91.40
2018-06-10T08:10:05.418Z,90.80
2018-06-10T08:12:34.018Z,90.40
2018-06-10T08:15:02.574Z,90.90
2018-06-10T08:17:31.191Z,91.20
2018-06-10T08:19:59.681Z,91.40
2018-06-10T08:22:28.253Z,91.60
2018-06-10T08:24:56.699Z,90.90
2018-06-10T08:27:25.322Z,89.50
2018-06-10T08:29:53.846Z,89.50
2018-06-10T08:32:22.429Z,90.70
2018-06-10T08:34:50.896Z,89.90
2018-06-10T08:37:19.494Z,86.70
2018-06-10T08:39:48.095Z,85.10
2018-06-10T08:42:16.713Z,84.30
2018-06-10T08:44:45.293Z,88.70
2018-06-10T08:47:13.874Z,90.20
2018-06-10T08:49:42.402Z,89.20
2018-06-10T08:52:11.392Z,89.30
2018-06-10T08:54:40.040Z,88.40
2018-06-10T08:57:08.607Z,90.50
2018-06-10T08:59:37.124Z,89.50
2018-06-10T09:02:05.591Z,89.30
2018-06-10T09:04:34.141Z,88.40
2018-06-10T09:07:02.635Z,86.20
2018-06-10T09:09:31.171Z,85.70
2018-06-10T09:11:59.646Z,86.80
2018-06-10T09:14:28.145Z,88.40
2018-06-10T09:16:56.710Z,88.60
2018-06-10T09:19:25.355Z,87.60
2018-06-10T09:21:53.883Z,87.00
2018-06-10T09:24:22.468Z,86.60
2018-06-10T09:26:51.111Z,85.90
2018-06-10T09:29:19.657Z,86.40
2018-06-10T09:31:48.329Z,85.50
2018-06-10T09:34:16.845Z,83.50
2018-06-10T09:36:45.540Z,82.50
2018-06-10T09:39:14.027Z,81.60
2018-06-10T09:41:42.505Z,79.70
2018-06-10T09:44:11.072Z,80.10
2018-06-10T09:46:39.502Z,76.80
2018-06-10T09:49:07.977Z,75.70
2018-06-10T09:51:36.617Z,74.50
2018-06-10T09:54:05.181Z,73.30
2018-06-10T09:56:33.716Z,73.00
2018-06-10T09:59:02.249Z,71.80
2018-06-10T10:01:30.689Z,74.70
2018-06-10T10:03:59.237Z,78.60
2018-06-10T10:06:27.736Z,80.00
2018-06-10T10:08:56.296Z,80.90
2018-06-10T10:11:24.827Z,82.80
2018-06-10T10:13:53.349Z,83.60
2018-06-10T10:16:21.824Z,83.90
2018-06-10T10:18:50.327Z,82.70
2018-06-10T10:21:18.934Z,80.50
2018-06-10T10:23:47.457Z,80.10
2018-06-10T10:26:16.049Z,77.60
2018-06-10T10:28:44.552Z,73.90
2018-06-10T10:31:13.179Z,73.10
2018-06-10T10:33:41.688Z,69.70
2018-06-10T10:36:10.282Z,69.70
2018-06-10T10:38:38.907Z,68.10
2018-06-10T10:41:07.299Z,71.80
2018-06-10T10:43:35.976Z,74.80
2018-06-10T10:46:04.543Z,77.30
2018-06-10T10:48:33.324Z,78.20
2018-06-10T10:51:01.822Z,76.20
2018-06-10T10:53:30.391Z,74.10
2018-06-10T10:55:59.060Z,72.30
2018-06-10T10:58:27.685Z,74.30
2018-06-10T11:00:56.207Z,76.60
2018-06-10T11:03:24.689Z,77.30
2018-06-10T11:05:53.174Z,76.20
2018-06-10T11:08:21.719Z,74.20
2018-06-10T11:10:50.261Z,72.00
2018-06-10T11:13:18.700Z,65.50
2018-06-10T11:15:47.221Z,63.60
2018-06-10T11:18:15.687Z,60.00
2018-06-10T11:20:44.151Z,58.20
2018-06-10T11:23:12.617Z,58.30
2018-06-10T11:25:41.081Z,58.50
2018-06-10T11:28:09.757Z,56.80
2018-06-10T11:30:38.334Z,54.80
2018-06-10T11:33:06.997Z,53.60
2018-06-10T11:35:35.580Z,55.10
2018-06-10T11:38:04.077Z,56.20
2018-06-10T11:40:32.786Z,56.40
2018-06-10T11:43:01.471Z,57.60
2018-06-10T11:45:29.988Z,56.70
2018-06-10T11:47:58.483Z,55.80
2018-06-10T11:50:26.972Z,55.60
2018-06-10T11:52:55.372Z,55.60
2018-06-10T11:55:23.856Z,53.40
2018-06-10T11:57:52.325Z,54.50
2018-06-10T12:00:20.847Z,56.50
2018-06-10T12:02:49.397Z,55.70
2018-06-10T12:05:17.945Z,57.50
2018-06-10T12:07:46.446Z,58.30
2018-06-10T12:10:14.983Z,57.70
2018-06-10T12:12:43.604Z,54.60
2018-06-10T12:15:12.080Z,52.70
2018-06-10T12:17:40.596Z,53.20
2018-06-10T12:20:11.877Z,51.30
2018-06-10T12:22:40.407Z,51.20
2018-06-10T12:25:08.801Z,51.10
2018-06-10T12:27:37.454Z,53.10
2018-06-10T12:30:05.892Z,54.10
2018-06-10T12:32:34.336Z,53.30
2018-06-10T12:35:02.855Z,52.80
2018-06-10T12:37:31.344Z,53.70
2018-06-10T12:39:59.814Z,53.30
2018-06-10T12:42:28.265Z,50.70
2018-06-10T12:44:56.721Z,49.80
2018-06-10T12:47:25.226Z,50.60
2018-06-10T12:49:53.711Z,50.90
2018-06-10T12:52:22.332Z,51.90
2018-06-10T12:54:50.979Z,52.90
2018-06-10T12:57:19.489Z,55.30
2018-06-10T12:59:47.942Z,56.90
2018-06-10T13:02:16.401Z,59.40
2018-06-10T13:04:44.950Z,60.80
2018-06-10T13:07:13.453Z,61.90
2018-06-10T13:09:41.888Z,63.30
2018-06-10T13:12:10.424Z,62.10
2018-06-10T13:14:38.926Z,64.90
2018-06-10T13:17:07.404Z,66.00
2018-06-10T13:19:35.904Z,68.80
2018-06-10T13:22:04.326Z,69.20
2018-06-10T13:24:32.830Z,70.10
2018-06-10T13:27:01.289Z,69.10
2018-06-10T13:29:29.751Z,69.30
2018-06-10T13:31:58.267Z,68.90
2018-06-10T13:34:26.940Z,71.50
2018-06-10T13:36:55.399Z,72.60
2018-06-10T13:39:23.867Z,73.10
2018-06-10T13:41:52.321Z,74.50
2018-06-10T13:44:20.905Z,74.80
2018-06-10T13:46:49.432Z,75.80
2018-06-10T13:49:17.884Z,74.20
2018-06-10T13:51:46.538Z,74.40
2018-06-10T13:54:15.136Z,73.80
2018-06-10T13:56:43.870Z,74.50
2018-06-10T14:01:40.551Z,75.80
2018-06-10T14:04:09.132Z,76.50
2018-06-10T14:06:37.819Z,78.00
2018-06-10T14:09:07.050Z,79.50
2018-06-10T14:11:35.697Z,79.70
2018-06-10T14:14:04.265Z,80.20
2018-06-10T14:16:32.851Z,79.70
2018-06-10T14:19:01.375Z,79.10
2018-06-10T14:21:29.962Z,79.70
2018-06-10T14:23:58.629Z,79.00
2018-06-10T14:26:27.703Z,78.00
2018-06-10T14:28:56.184Z,77.50
2018-06-10T14:31:24.781Z,77.80
2018-06-10T14:33:53.379Z,78.10
2018-06-10T14:36:21.937Z,77.10
2018-06-10T14:38:50.727Z,77.00
2018-06-10T14:41:19.234Z,76.70
2018-06-10T14:43:47.715Z,75.00
2018-06-10T14:46:16.157Z,76.60
2018-06-10T14:48:44.842Z,78.80
2018-06-10T14:51:13.250Z,77.30
2018-06-10T14:53:41.803Z,79.90
2018-06-10T14:56:10.394Z,78.30
2018-06-10T14:58:39.492Z,74.60
2018-06-10T15:01:08.050Z,74.10
2018-06-10T15:03:36.510Z,73.70
2018-06-10T15:06:05.108Z,74.60
2018-06-10T15:08:33.798Z,76.50
2018-06-10T15:11:02.328Z,77.20
2018-06-10T15:13:31.052Z,78.10
2018-06-10T15:15:59.728Z,79.00
2018-06-10T15:18:28.339Z,79.00
2018-06-10T15:23:25.063Z,81.00
2018-06-10T15:25:53.596Z,81.20
2018-06-10T15:28:22.306Z,79.10
2018-06-10T15:30:50.973Z,77.30
2018-06-10T15:33:19.588Z,77.50
2018-06-10T15:35:48.121Z,75.80
2018-06-10T15:38:16.669Z,77.10
2018-06-10T15:40:45.318Z,76.70
2018-06-10T15:43:13.773Z,75.70
2018-06-10T15:45:42.282Z,73.80
2018-06-10T15:48:10.872Z,72.20
2018-06-10T15:50:39.394Z,73.40
2018-06-10T15:53:08.299Z,74.60
2018-06-10T15:55:36.887Z,75.70
2018-06-10T15:58:05.530Z,75.30
2018-06-10T16:00:34.264Z,75.70
2018-06-10T16:03:02.816Z,75.50
2018-06-10T16:05:31.424Z,75.90
2018-06-10T16:07:59.950Z,75.50
2018-06-10T16:10:28.613Z,75.40
2018-06-10T16:12:57.455Z,75.80
2018-06-10T16:15:25.901Z,75.90
2018-06-10T16:17:54.560Z,74.70
2018-06-10T16:20:23.068Z,73.90
2018-06-10T16:22:51.552Z,74.80
2018-06-10T16:25:20.018Z,74.00
2018-06-10T16:27:48.607Z,72.60
2018-06-10T16:30:17.115Z,72.20
2018-06-10T16:32:45.554Z,71.90
2018-06-10T16:35:14.228Z,72.80
2018-06-10T16:37:42.926Z,72.70
2018-06-10T16:40:11.405Z,72.20
2018-06-10T16:42:40.022Z,71.40
2018-06-10T16:45:08.490Z,71.90
2018-06-10T16:47:36.989Z,71.70
2018-06-10T16:50:05.589Z,72.20
2018-06-10T16:52:34.102Z,72.20
2018-06-10T16:55:02.700Z,72.50
2018-06-10T16:57:31.489Z,73.60
2018-06-10T17:00:00.568Z,74.50
2018-06-10T17:02:29.180Z,74.90
2018-06-10T17:04:57.715Z,75.80
2018-06-10T17:07:26.281Z,77.00
2018-06-10T17:09:55.188Z,78.00
2018-06-10T17:12:24.805Z,78.30
2018-06-10T17:14:53.551Z,77.90
2018-06-10T17:17:22.363Z,77.50
2018-06-10T17:19:50.871Z,76.90
2018-06-10T17:22:19.539Z,77.00
2018-06-10T17:24:48.402Z,76.90
2018-06-10T17:27:17.105Z,77.40
2018-06-10T17:32:14.097Z,76.50
2018-06-10T17:34:42.720Z,76.80
2018-06-10T17:37:11.594Z,78.80
2018-06-10T17:39:40.152Z,78.70
2018-06-10T17:42:08.755Z,78.90
2018-06-10T17:44:37.442Z,79.70
2018-06-10T17:47:06.150Z,79.40
2018-06-10T17:49:35.248Z,80.10
2018-06-10T17:52:04.509Z,81.30
2018-06-10T17:54:33.166Z,82.10
2018-06-10T17:57:01.804Z,82.70
2018-06-10T17:59:30.475Z,83.50
2018-06-10T18:01:59.042Z,83.90
2018-06-10T18:04:28.217Z,84.90
2018-06-10T18:06:57.012Z,85.40
2018-06-10T18:11:54.321Z,86.40
2018-06-10T18:14:23.656Z,87.20
2018-06-10T18:16:52.995Z,88.00
2018-06-10T18:19:21.842Z,88.20
2018-06-10T18:21:50.641Z,89.00
2018-06-10T18:24:20.575Z,89.50
2018-06-10T18:26:50.603Z,90.40
2018-06-10T18:29:21.411Z,90.20
2018-06-10T18:31:50.892Z,90.30
2018-06-10T18:34:20.213Z,90.70
2018-06-10T18:36:49.620Z,91.00
2018-06-10T18:39:18.528Z,91.30
2018-06-10T18:41:48.064Z,91.50
2018-06-10T18:44:16.982Z,91.90
2018-06-10T18:46:46.009Z,91.80
2018-06-10T18:49:15.038Z,92.20
2018-06-10T18:51:43.689Z,92.40
2018-06-10T18:54:12.385Z,92.60
2018-06-10T18:56:41.090Z,92.90
2018-06-10T18:59:09.726Z,92.90
2018-06-10T19:01:38.663Z,93.20
2018-06-10T19:04:07.612Z,93.40
2018-06-10T19:06:36.732Z,93.70
2018-06-10T19:09:09.018Z,93.80
2018-06-10T19:11:37.963Z,94.00
2018-06-10T19:14:06.577Z,94.30
2018-06-10T19:16:35.083Z,94.30
2018-06-10T19:19:03.888Z,94.50
2018-06-10T19:21:32.489Z,94.50
2018-06-10T19:24:01.115Z,94.70
2018-06-10T19:26:29.667Z,94.70
2018-06-10T19:28:58.396Z,95.00
2018-06-10T19:31:27.430Z,95.20
2018-06-10T19:33:56.324Z,95.40
2018-06-10T19:36:26.250Z,95.60
2018-06-10T19:38:55.181Z,95.80
2018-06-10T19:41:25.875Z,96.10
2018-06-10T19:43:55.839Z,96.20
2018-06-10T19:46:26.548Z,96.60
2018-06-10T19:48:55.442Z,96.40
2018-06-10T19:51:24.125Z,96.50
2018-06-10T19:53:53.002Z,96.80
2018-06-10T19:56:21.902Z,96.90
2018-06-10T19:58:50.406Z,97.30
2018-06-10T20:01:19.216Z,97.20
2018-06-10T20:03:47.732Z,97.60
2018-06-10T20:06:16.420Z,97.80
2018-06-10T20:08:45.013Z,98.10
2018-06-10T20:11:13.937Z,98.20
2018-06-10T20:13:43.641Z,98.40
2018-06-10T20:16:12.440Z,98.60
2018-06-10T20:18:41.267Z,98.60
2018-06-10T20:21:10.306Z,98.90
2018-06-10T20:23:39.079Z,99.00
2018-06-10T20:26:07.858Z,98.90
2018-06-10T20:28:36.621Z,99.30
2018-06-10T20:31:05.242Z,99.80
2018-06-10T20:33:33.829Z,99.70
2018-06-10T20:36:02.394Z,99.90
2018-06-10T20:38:31.016Z,99.90
2018-06-10T20:40:59.588Z,99.90
2018-06-10T20:43:28.234Z,99.90
2018-06-10T20:48:25.068Z,99.90
2018-06-10T20:53:22.020Z,99.90
2018-06-10T20:55:50.697Z,99.90
2018-06-10T20:58:19.213Z,99.90
2018-06-10T21:00:47.729Z,99.90
2018-06-10T21:03:16.335Z,99.90
2018-06-10T21:05:45.020Z,99.90
2018-06-10T21:08:13.561Z,99.90
2018-06-10T21:10:42.166Z,99.90
2018-06-10T21:13:10.672Z,99.90
2018-06-10T21:15:40.150Z,99.90
2018-06-10T21:18:08.650Z,99.90
2018-06-10T21:20:37.137Z,99.90
2018-06-10T21:23:05.579Z,99.90
2018-06-10T21:25:34.006Z,99.90
2018-06-10T21:28:02.750Z,99.90
2018-06-10T21:30:31.297Z,99.90
2018-06-10T21:32:59.848Z,99.90
2018-06-10T21:35:28.309Z,99.90
2018-06-10T21:37:56.786Z,99.90
2018-06-10T21:40:25.320Z,99.90
2018-06-10T21:42:53.772Z,99.90
2018-06-10T21:45:22.224Z,99.90
2018-06-10T21:50:18.806Z,99.90
2018-06-10T21:52:47.370Z,99.90
2018-06-10T21:55:16.343Z,99.90
2018-06-10T21:57:44.809Z,99.90
2018-06-10T22:00:23.950Z,99.90
2018-06-10T22:02:52.712Z,99.90
2018-06-10T22:05:21.671Z,99.90
2018-06-10T22:07:50.330Z,99.90
2018-06-10T22:10:19.070Z,99.90
2018-06-10T22:12:47.524Z,99.90
2018-06-10T22:15:16.271Z,99.90
2018-06-10T22:17:44.661Z,99.90
2018-06-10T22:22:41.261Z,99.90
2018-06-10T22:25:09.709Z,99.90
2018-06-10T22:27:38.123Z,99.90
2018-06-10T22:30:06.674Z,99.90
2018-06-10T22:32:35.156Z,99.90
2018-06-10T22:35:03.636Z,99.90
2018-06-10T22:37:32.045Z,99.90
2018-06-10T22:40:00.658Z,99.90
2018-06-10T22:42:29.117Z,99.90
2018-06-10T22:44:57.594Z,99.90
2018-06-10T22:47:26.344Z,99.90
2018-06-10T22:49:55.115Z,99.90
2018-06-10T22:52:23.918Z,99.90
2018-06-10T22:54:52.339Z,99.90
2018-06-10T22:57:20.776Z,99.90
2018-06-10T22:59:49.212Z,99.90
2018-06-10T23:02:17.684Z,99.90
2018-06-10T23:04:46.130Z,99.90
2018-06-10T23:07:14.618Z,99.90
2018-06-10T23:09:43.524Z,99.90
2018-06-10T23:12:12.072Z,99.90
2018-06-10T23:14:40.972Z,99.90
2018-06-10T23:17:09.490Z,99.90
2018-06-10T23:19:37.872Z,99.90
2018-06-10T23:22:06.325Z,99.90
2018-06-10T23:24:34.758Z,99.90
2018-06-10T23:27:03.236Z,99.90
2018-06-10T23:29:31.803Z,99.90
2018-06-10T23:32:00.619Z,99.90
2018-06-10T23:36:57.441Z,99.90
2018-06-10T23:39:25.856Z,99.90
2018-06-10T23:41:54.321Z,99.90
2018-06-10T23:44:22.814Z,99.90
2018-06-10T23:46:51.400Z,99.90
2018-06-10T23:49:19.952Z,99.90
2018-06-10T23:51:48.491Z,99.90
2018-06-10T23:54:16.917Z,99.90
2018-06-10T23:56:45.396Z,99.90
2018-06-10T23:59:13.879Z,99.90
